sensor_id;sensor_type;location;lat;lon;timestamp;pressure;altitude;pressure_sealevel;temperature;humidity
41234;BME280;26968;42.686;23.352;2023-09-18T00:00:45;95711.16;;;19.38;69.89
41234;BME280;26968;42.686;23.352;2023-09-18T00:03:11;95695.50;;;19.40;70.06
41234;BME280;26968;42.686;23.352;2023-09-18T00:05:36;95684.91;;;19.43;69.50
41234;BME280;26968;42.686;23.352;2023-09-18T00:08:02;95705.50;;;19.65;69.26
41234;BME280;26968;42.686;23.352;2023-09-18T00:10:27;95641.88;;;19.09;70.00
41234;BME280;26968;42.686;23.352;2023-09-18T00:12:54;95718.63;;;19.67;69.83
41234;BME280;26968;42.686;23.352;2023-09-18T00:15:20;95713.88;;;19.72;69.69
41234;BME280;26968;42.686;23.352;2023-09-18T00:17:45;95705.00;;;19.63;69.62
41234;BME280;26968;42.686;23.352;2023-09-18T00:20:11;95718.16;;;19.73;69.88
41234;BME280;26968;42.686;23.352;2023-09-18T00:22:37;95712.94;;;19.68;69.47
41234;BME280;26968;42.686;23.352;2023-09-18T00:25:03;95688.06;;;19.62;69.43
41234;BME280;26968;42.686;23.352;2023-09-18T00:27:29;95716.41;;;19.77;69.22
41234;BME280;26968;42.686;23.352;2023-09-18T00:29:54;95666.06;;;19.35;69.56
41234;BME280;26968;42.686;23.352;2023-09-18T00:32:20;95716.88;;;19.71;69.53
41234;BME280;26968;42.686;23.352;2023-09-18T00:34:46;95674.78;;;19.49;69.03
41234;BME280;26968;42.686;23.352;2023-09-18T00:37:11;95678.25;;;19.32;69.13
41234;BME280;26968;42.686;23.352;2023-09-18T00:39:38;95723.53;;;19.47;69.56
41234;BME280;26968;42.686;23.352;2023-09-18T00:42:03;95714.31;;;19.40;69.84
41234;BME280;26968;42.686;23.352;2023-09-18T00:44:29;95692.97;;;19.35;69.54
41234;BME280;26968;42.686;23.352;2023-09-18T00:46:55;95700.13;;;19.48;69.08
41234;BME280;26968;42.686;23.352;2023-09-18T00:49:22;95692.19;;;19.34;69.21
41234;BME280;26968;42.686;23.352;2023-09-18T00:51:48;95694.56;;;19.44;69.08
41234;BME280;26968;42.686;23.352;2023-09-18T00:54:15;95711.97;;;19.64;68.70
41234;BME280;26968;42.686;23.352;2023-09-18T00:56:43;95703.44;;;19.62;68.33
41234;BME280;26968;42.686;23.352;2023-09-18T00:59:09;95691.69;;;19.41;68.62
41234;BME280;26968;42.686;23.352;2023-09-18T01:01:35;95718.63;;;19.67;68.62
41234;BME280;26968;42.686;23.352;2023-09-18T01:04:01;95711.19;;;19.55;68.85
41234;BME280;26968;42.686;23.352;2023-09-18T01:06:27;95741.09;;;19.71;68.47
41234;BME280;26968;42.686;23.352;2023-09-18T01:08:56;95745.22;;;19.68;68.80
41234;BME280;26968;42.686;23.352;2023-09-18T01:14:14;95737.47;;;19.67;68.49
41234;BME280;26968;42.686;23.352;2023-09-18T01:16:49;95729.03;;;19.42;69.02
41234;BME280;26968;42.686;23.352;2023-09-18T01:19:16;95717.97;;;19.35;68.76
41234;BME280;26968;42.686;23.352;2023-09-18T01:21:44;95700.72;;;19.27;68.52
41234;BME280;26968;42.686;23.352;2023-09-18T01:24:10;95747.44;;;19.66;68.45
41234;BME280;26968;42.686;23.352;2023-09-18T01:26:35;95701.66;;;19.40;68.12
41234;BME280;26968;42.686;23.352;2023-09-18T01:29:01;95688.69;;;19.16;68.81
41234;BME280;26968;42.686;23.352;2023-09-18T01:31:27;95705.94;;;19.33;68.31
41234;BME280;26968;42.686;23.352;2023-09-18T01:33:53;95668.44;;;19.02;68.53
41234;BME280;26968;42.686;23.352;2023-09-18T01:36:19;95644.38;;;18.88;68.24
41234;BME280;26968;42.686;23.352;2023-09-18T01:38:45;95740.31;;;19.53;68.43
41234;BME280;26968;42.686;23.352;2023-09-18T01:41:12;95714.50;;;19.43;68.28
41234;BME280;26968;42.686;23.352;2023-09-18T01:43:38;95719.72;;;19.48;67.74
41234;BME280;26968;42.686;23.352;2023-09-18T01:46:04;95725.75;;;19.54;68.11
41234;BME280;26968;42.686;23.352;2023-09-18T01:48:30;95729.97;;;19.38;68.42
41234;BME280;26968;42.686;23.352;2023-09-18T01:50:55;95729.34;;;19.41;68.47
41234;BME280;26968;42.686;23.352;2023-09-18T01:53:21;95708.94;;;19.31;68.61
41234;BME280;26968;42.686;23.352;2023-09-18T01:55:46;95711.78;;;19.26;68.59
41234;BME280;26968;42.686;23.352;2023-09-18T01:58:13;95716.88;;;19.36;68.35
41234;BME280;26968;42.686;23.352;2023-09-18T02:00:39;95742.63;;;19.46;68.37
41234;BME280;26968;42.686;23.352;2023-09-18T02:03:05;95747.88;;;19.42;68.67
41234;BME280;26968;42.686;23.352;2023-09-18T02:05:30;95747.75;;;19.56;67.98
41234;BME280;26968;42.686;23.352;2023-09-18T02:07:55;95734.41;;;19.42;68.04
41234;BME280;26968;42.686;23.352;2023-09-18T02:10:21;95740.94;;;19.50;67.61
41234;BME280;26968;42.686;23.352;2023-09-18T02:12:46;95745.31;;;19.46;67.84
41234;BME280;26968;42.686;23.352;2023-09-18T02:15:12;95752.03;;;19.57;67.76
41234;BME280;26968;42.686;23.352;2023-09-18T02:17:37;95729.34;;;19.41;67.87
41234;BME280;26968;42.686;23.352;2023-09-18T02:20:04;95753.31;;;19.59;67.76
41234;BME280;26968;42.686;23.352;2023-09-18T02:22:37;95737.59;;;19.44;67.98
41234;BME280;26968;42.686;23.352;2023-09-18T02:25:04;95751.06;;;19.61;67.53
41234;BME280;26968;42.686;23.352;2023-09-18T02:27:29;95699.63;;;19.28;67.71
41234;BME280;26968;42.686;23.352;2023-09-18T02:29:55;95688.22;;;19.14;67.49
41234;BME280;26968;42.686;23.352;2023-09-18T02:32:20;95729.97;;;19.46;67.26
41234;BME280;26968;42.686;23.352;2023-09-18T02:34:46;95751.63;;;19.24;68.40
41234;BME280;26968;42.686;23.352;2023-09-18T02:37:11;95727.91;;;19.17;68.33
41234;BME280;26968;42.686;23.352;2023-09-18T02:39:36;95735.22;;;19.34;68.00
41234;BME280;26968;42.686;23.352;2023-09-18T02:42:02;95705.59;;;19.17;67.75
41234;BME280;26968;42.686;23.352;2023-09-18T02:44:28;95748.19;;;19.41;67.82
41234;BME280;26968;42.686;23.352;2023-09-18T02:46:53;95711.13;;;19.12;67.80
41234;BME280;26968;42.686;23.352;2023-09-18T02:49:19;95725.38;;;19.21;67.77
41234;BME280;26968;42.686;23.352;2023-09-18T02:51:44;95736.16;;;19.30;67.74
41234;BME280;26968;42.686;23.352;2023-09-18T02:54:10;95717.00;;;19.22;67.37
41234;BME280;26968;42.686;23.352;2023-09-18T02:56:35;95723.34;;;19.26;67.72
41234;BME280;26968;42.686;23.352;2023-09-18T02:59:00;95722.22;;;19.27;67.39
41234;BME280;26968;42.686;23.352;2023-09-18T03:01:26;95729.19;;;19.20;67.21
41234;BME280;26968;42.686;23.352;2023-09-18T03:03:52;95744.84;;;19.26;67.92
41234;BME280;26968;42.686;23.352;2023-09-18T03:06:17;95669.81;;;18.73;67.57
41234;BME280;26968;42.686;23.352;2023-09-18T03:08:43;95737.41;;;19.23;67.42
41234;BME280;26968;42.686;23.352;2023-09-18T03:11:12;95761.31;;;19.34;67.63
41234;BME280;26968;42.686;23.352;2023-09-18T03:13:45;95757.81;;;19.33;67.48
41234;BME280;26968;42.686;23.352;2023-09-18T03:16:14;95741.53;;;19.21;67.46
41234;BME280;26968;42.686;23.352;2023-09-18T03:18:39;95756.22;;;19.32;67.62
41234;BME280;26968;42.686;23.352;2023-09-18T03:21:05;95754.50;;;19.36;67.46
41234;BME280;26968;42.686;23.352;2023-09-18T03:23:31;95720.00;;;19.12;67.32
41234;BME280;26968;42.686;23.352;2023-09-18T03:25:56;95755.13;;;19.33;67.47
41234;BME280;26968;42.686;23.352;2023-09-18T03:28:22;95711.44;;;19.02;67.58
41234;BME280;26968;42.686;23.352;2023-09-18T03:30:50;95717.31;;;19.12;67.88
41234;BME280;26968;42.686;23.352;2023-09-18T03:33:15;95712.41;;;19.06;67.77
41234;BME280;26968;42.686;23.352;2023-09-18T03:35:48;95735.19;;;19.25;67.67
41234;BME280;26968;42.686;23.352;2023-09-18T03:38:14;95734.25;;;19.21;67.63
41234;BME280;26968;42.686;23.352;2023-09-18T03:40:40;95732.34;;;19.22;67.82
41234;BME280;26968;42.686;23.352;2023-09-18T03:43:06;95734.06;;;19.18;67.79
41234;BME280;26968;42.686;23.352;2023-09-18T03:45:32;95726.47;;;19.11;67.88
41234;BME280;26968;42.686;23.352;2023-09-18T03:47:58;95698.75;;;18.94;67.87
41234;BME280;26968;42.686;23.352;2023-09-18T03:50:23;95732.81;;;19.07;68.32
41234;BME280;26968;42.686;23.352;2023-09-18T03:52:48;95722.81;;;19.07;68.31
41234;BME280;26968;42.686;23.352;2023-09-18T03:55:14;95681.50;;;18.77;68.02
41234;BME280;26968;42.686;23.352;2023-09-18T03:57:42;95707.50;;;18.99;68.18
41234;BME280;26968;42.686;23.352;2023-09-18T04:00:08;95709.53;;;19.02;68.07
41234;BME280;26968;42.686;23.352;2023-09-18T04:02:33;95677.03;;;18.64;68.48
41234;BME280;26968;42.686;23.352;2023-09-18T04:05:00;95723.44;;;18.96;68.51
41234;BME280;26968;42.686;23.352;2023-09-18T04:07:25;95703.47;;;18.79;68.72
41234;BME280;26968;42.686;23.352;2023-09-18T04:09:50;95704.13;;;18.85;68.66
41234;BME280;26968;42.686;23.352;2023-09-18T04:12:16;95701.09;;;18.78;68.65
41234;BME280;26968;42.686;23.352;2023-09-18T04:14:41;95723.25;;;18.83;68.95
41234;BME280;26968;42.686;23.352;2023-09-18T04:17:07;95731.50;;;18.96;68.83
41234;BME280;26968;42.686;23.352;2023-09-18T04:19:33;95734.50;;;18.94;68.87
41234;BME280;26968;42.686;23.352;2023-09-18T04:21:58;95716.59;;;18.81;68.30
41234;BME280;26968;42.686;23.352;2023-09-18T04:24:25;95742.56;;;18.94;68.70
41234;BME280;26968;42.686;23.352;2023-09-18T04:26:51;95716.88;;;18.71;68.76
41234;BME280;26968;42.686;23.352;2023-09-18T04:29:18;95699.34;;;18.65;68.72
41234;BME280;26968;42.686;23.352;2023-09-18T04:31:44;95736.69;;;18.83;68.69
41234;BME280;26968;42.686;23.352;2023-09-18T04:34:10;95718.19;;;18.82;68.70
41234;BME280;26968;42.686;23.352;2023-09-18T04:36:36;95732.75;;;18.89;68.70
41234;BME280;26968;42.686;23.352;2023-09-18T04:39:03;95717.97;;;18.70;69.01
41234;BME280;26968;42.686;23.352;2023-09-18T04:41:30;95741.91;;;18.80;69.19
41234;BME280;26968;42.686;23.352;2023-09-18T04:43:55;95745.22;;;18.85;69.06
41234;BME280;26968;42.686;23.352;2023-09-18T04:46:21;95726.38;;;18.77;68.96
41234;BME280;26968;42.686;23.352;2023-09-18T04:48:46;95753.94;;;18.91;68.92
41234;BME280;26968;42.686;23.352;2023-09-18T04:51:12;95742.53;;;18.85;69.01
41234;BME280;26968;42.686;23.352;2023-09-18T04:53:38;95693.31;;;18.59;68.86
41234;BME280;26968;42.686;23.352;2023-09-18T04:56:03;95716.59;;;18.81;68.68
41234;BME280;26968;42.686;23.352;2023-09-18T04:58:30;95752.41;;;18.99;69.00
41234;BME280;26968;42.686;23.352;2023-09-18T05:00:57;95665.75;;;18.45;69.20
41234;BME280;26968;42.686;23.352;2023-09-18T05:03:23;95683.00;;;18.52;69.09
41234;BME280;26968;42.686;23.352;2023-09-18T05:05:48;95656.56;;;18.37;69.42
41234;BME280;26968;42.686;23.352;2023-09-18T05:08:14;95723.69;;;18.77;69.26
41234;BME280;26968;42.686;23.352;2023-09-18T05:10:39;95736.53;;;18.88;69.56
41234;BME280;26968;42.686;23.352;2023-09-18T05:13:05;95654.69;;;18.38;69.28
41234;BME280;26968;42.686;23.352;2023-09-18T05:15:31;95752.72;;;19.06;68.78
41234;BME280;26968;42.686;23.352;2023-09-18T05:17:57;95747.19;;;19.11;68.69
41234;BME280;26968;42.686;23.352;2023-09-18T05:20:28;95697.78;;;18.72;68.69
41234;BME280;26968;42.686;23.352;2023-09-18T05:22:55;95727.38;;;18.89;69.05
41234;BME280;26968;42.686;23.352;2023-09-18T05:25:22;95663.09;;;18.54;68.63
41234;BME280;26968;42.686;23.352;2023-09-18T05:27:52;95759.34;;;19.08;68.87
41234;BME280;26968;42.686;23.352;2023-09-18T05:30:24;95758.88;;;18.98;69.60
41234;BME280;26968;42.686;23.352;2023-09-18T05:32:52;95760.91;;;19.01;69.17
41234;BME280;26968;42.686;23.352;2023-09-18T05:35:18;95760.94;;;19.09;69.23
41234;BME280;26968;42.686;23.352;2023-09-18T05:37:43;95758.44;;;19.21;68.57
41234;BME280;26968;42.686;23.352;2023-09-18T05:40:10;95760.34;;;19.21;68.68
41234;BME280;26968;42.686;23.352;2023-09-18T05:42:37;95729.59;;;18.96;69.08
41234;BME280;26968;42.686;23.352;2023-09-18T05:45:03;95764.28;;;19.23;68.90
41234;BME280;26968;42.686;23.352;2023-09-18T05:47:33;95762.88;;;19.26;69.08
41234;BME280;26968;42.686;23.352;2023-09-18T05:49:58;95740.25;;;19.18;68.59
41234;BME280;26968;42.686;23.352;2023-09-18T05:52:25;95737.75;;;19.22;68.50
41234;BME280;26968;42.686;23.352;2023-09-18T05:54:51;95740.06;;;19.06;69.41
41234;BME280;26968;42.686;23.352;2023-09-18T05:57:17;95761.59;;;19.06;69.71
41234;BME280;26968;42.686;23.352;2023-09-18T05:59:43;95719.16;;;18.86;69.09
41234;BME280;26968;42.686;23.352;2023-09-18T06:02:11;95731.19;;;18.97;69.51
41234;BME280;26968;42.686;23.352;2023-09-18T06:04:39;95767.78;;;19.33;69.22
41234;BME280;26968;42.686;23.352;2023-09-18T06:07:04;95748.03;;;19.28;68.77
41234;BME280;26968;42.686;23.352;2023-09-18T06:09:30;95740.41;;;19.31;68.50
41234;BME280;26968;42.686;23.352;2023-09-18T06:11:55;95711.47;;;19.19;68.25
41234;BME280;26968;42.686;23.352;2023-09-18T06:14:20;95741.06;;;19.45;67.62
41234;BME280;26968;42.686;23.352;2023-09-18T06:16:46;95752.50;;;19.59;67.66
41234;BME280;26968;42.686;23.352;2023-09-18T06:19:12;95766.28;;;19.75;67.33
41234;BME280;26968;42.686;23.352;2023-09-18T06:21:37;95658.75;;;18.92;67.61
41234;BME280;26968;42.686;23.352;2023-09-18T06:24:03;95764.69;;;19.65;67.91
41234;BME280;26968;42.686;23.352;2023-09-18T06:26:29;95777.19;;;19.78;67.17
41234;BME280;26968;42.686;23.352;2023-09-18T06:28:54;95766.28;;;19.83;66.95
41234;BME280;26968;42.686;23.352;2023-09-18T06:31:20;95731.78;;;19.59;66.87
41234;BME280;26968;42.686;23.352;2023-09-18T06:33:46;95773.06;;;19.89;66.54
41234;BME280;26968;42.686;23.352;2023-09-18T06:36:13;95738.09;;;19.81;66.06
41234;BME280;26968;42.686;23.352;2023-09-18T06:38:38;95670.19;;;19.41;65.67
41234;BME280;26968;42.686;23.352;2023-09-18T06:41:04;95779.56;;;20.06;65.74
41234;BME280;26968;42.686;23.352;2023-09-18T06:43:29;95773.38;;;20.14;65.54
41234;BME280;26968;42.686;23.352;2023-09-18T06:45:55;95776.06;;;20.14;65.05
41234;BME280;26968;42.686;23.352;2023-09-18T06:48:23;95694.25;;;19.72;64.95
41234;BME280;26968;42.686;23.352;2023-09-18T06:50:49;95717.97;;;19.78;65.23
41234;BME280;26968;42.686;23.352;2023-09-18T06:53:14;95631.91;;;19.35;64.87
41234;BME280;26968;42.686;23.352;2023-09-18T06:55:40;95776.06;;;20.14;65.69
41234;BME280;26968;42.686;23.352;2023-09-18T06:58:05;95719.69;;;19.91;65.36
41234;BME280;26968;42.686;23.352;2023-09-18T07:00:30;95731.91;;;19.97;65.44
41234;BME280;26968;42.686;23.352;2023-09-18T07:02:56;95761.13;;;20.25;65.05
41234;BME280;26968;42.686;23.352;2023-09-18T07:05:22;95774.00;;;20.36;65.03
41234;BME280;26968;42.686;23.352;2023-09-18T07:07:48;95701.81;;;19.95;65.02
41234;BME280;26968;42.686;23.352;2023-09-18T07:10:13;95748.47;;;20.25;64.89
41234;BME280;26968;42.686;23.352;2023-09-18T07:12:39;95734.69;;;20.27;64.25
41234;BME280;26968;42.686;23.352;2023-09-18T07:15:05;95758.06;;;20.52;64.00
41234;BME280;26968;42.686;23.352;2023-09-18T07:17:32;95726.13;;;20.33;63.79
41234;BME280;26968;42.686;23.352;2023-09-18T07:19:57;95737.19;;;20.32;63.79
41234;BME280;26968;42.686;23.352;2023-09-18T07:22:23;95767.91;;;20.57;63.28
41234;BME280;26968;42.686;23.352;2023-09-18T07:24:51;95769.91;;;20.68;63.44
41234;BME280;26968;42.686;23.352;2023-09-18T07:27:20;95710.59;;;20.39;63.69
41234;BME280;26968;42.686;23.352;2023-09-18T07:29:45;95721.63;;;20.55;63.25
41234;BME280;26968;42.686;23.352;2023-09-18T07:32:11;95770.63;;;20.86;63.32
41234;BME280;26968;42.686;23.352;2023-09-18T07:34:37;95778.22;;;20.93;63.31
41234;BME280;26968;42.686;23.352;2023-09-18T07:37:02;95773.09;;;21.00;62.87
41234;BME280;26968;42.686;23.352;2023-09-18T07:39:28;95772.47;;;21.03;62.07
41234;BME280;26968;42.686;23.352;2023-09-18T07:41:53;95772.75;;;21.10;62.05
41234;BME280;26968;42.686;23.352;2023-09-18T07:44:21;95749.00;;;21.03;61.80
41234;BME280;26968;42.686;23.352;2023-09-18T07:46:46;95769.84;;;21.15;61.87
41234;BME280;26968;42.686;23.352;2023-09-18T07:49:12;95677.59;;;20.51;61.96
41234;BME280;26968;42.686;23.352;2023-09-18T07:51:39;95775.56;;;21.13;61.92
41234;BME280;26968;42.686;23.352;2023-09-18T07:54:04;95771.41;;;21.25;61.69
41234;BME280;26968;42.686;23.352;2023-09-18T07:56:30;95741.84;;;20.99;61.47
41234;BME280;26968;42.686;23.352;2023-09-18T07:58:58;95776.66;;;21.21;60.87
41234;BME280;26968;42.686;23.352;2023-09-18T08:01:24;95767.72;;;21.29;60.74
41234;BME280;26968;42.686;23.352;2023-09-18T08:03:49;95733.56;;;21.12;60.72
41234;BME280;26968;42.686;23.352;2023-09-18T08:06:15;95713.50;;;20.93;60.41
41234;BME280;26968;42.686;23.352;2023-09-18T08:08:43;95708.06;;;21.01;60.24
41234;BME280;26968;42.686;23.352;2023-09-18T08:11:09;95701.66;;;20.85;60.97
41234;BME280;26968;42.686;23.352;2023-09-18T08:13:35;95709.97;;;21.01;60.66
41234;BME280;26968;42.686;23.352;2023-09-18T08:16:01;95746.66;;;21.23;60.43
41234;BME280;26968;42.686;23.352;2023-09-18T08:18:26;95681.63;;;20.95;60.21
41234;BME280;26968;42.686;23.352;2023-09-18T08:20:53;95762.16;;;21.55;59.82
41234;BME280;26968;42.686;23.352;2023-09-18T08:23:20;95752.50;;;21.54;59.71
41234;BME280;26968;42.686;23.352;2023-09-18T08:25:45;95746.56;;;21.61;59.05
41234;BME280;26968;42.686;23.352;2023-09-18T08:28:12;95715.44;;;21.42;58.94
41234;BME280;26968;42.686;23.352;2023-09-18T08:30:40;95736.38;;;21.66;58.62
41234;BME280;26968;42.686;23.352;2023-09-18T08:33:05;95737.81;;;21.64;58.60
41234;BME280;26968;42.686;23.352;2023-09-18T08:35:31;95726.88;;;21.60;58.86
41234;BME280;26968;42.686;23.352;2023-09-18T08:37:57;95696.13;;;21.52;58.47
41234;BME280;26968;42.686;23.352;2023-09-18T08:40:23;95748.22;;;21.74;58.91
41234;BME280;26968;42.686;23.352;2023-09-18T08:42:51;95741.50;;;21.80;58.40
41234;BME280;26968;42.686;23.352;2023-09-18T08:45:23;95735.56;;;21.86;58.72
41234;BME280;26968;42.686;23.352;2023-09-18T08:47:51;95699.16;;;21.72;59.17
41234;BME280;26968;42.686;23.352;2023-09-18T08:50:19;95705.63;;;21.91;57.89
41234;BME280;26968;42.686;23.352;2023-09-18T08:52:47;95722.44;;;21.97;57.98
41234;BME280;26968;42.686;23.352;2023-09-18T08:55:13;95719.75;;;21.97;57.84
41234;BME280;26968;42.686;23.352;2023-09-18T08:57:39;95691.78;;;21.81;58.14
41234;BME280;26968;42.686;23.352;2023-09-18T09:00:07;95711.78;;;22.01;58.27
41234;BME280;26968;42.686;23.352;2023-09-18T09:02:34;95701.63;;;21.98;57.24
41234;BME280;26968;42.686;23.352;2023-09-18T09:04:59;95714.78;;;22.20;56.40
41234;BME280;26968;42.686;23.352;2023-09-18T09:07:26;95679.50;;;22.04;56.24
41234;BME280;26968;42.686;23.352;2023-09-18T09:09:51;95710.72;;;22.26;56.16
41234;BME280;26968;42.686;23.352;2023-09-18T09:15:38;95705.09;;;22.31;56.18
41234;BME280;26968;42.686;23.352;2023-09-18T09:18:11;95725.31;;;22.58;55.53
41234;BME280;26968;42.686;23.352;2023-09-18T09:20:37;95696.56;;;22.41;54.83
41234;BME280;26968;42.686;23.352;2023-09-18T09:23:04;95679.91;;;22.51;54.98
41234;BME280;26968;42.686;23.352;2023-09-18T09:25:31;95720.38;;;22.84;55.21
41234;BME280;26968;42.686;23.352;2023-09-18T09:27:59;95699.78;;;22.80;53.94
41234;BME280;26968;42.686;23.352;2023-09-18T09:30:27;95592.63;;;22.14;53.64
41234;BME280;26968;42.686;23.352;2023-09-18T09:32:55;95717.13;;;22.91;52.92
41234;BME280;26968;42.686;23.352;2023-09-18T09:35:27;95681.72;;;22.71;52.66
41234;BME280;26968;42.686;23.352;2023-09-18T09:37:57;95628.91;;;22.50;53.20
41234;BME280;26968;42.686;23.352;2023-09-18T09:40:24;95708.88;;;23.12;53.88
41234;BME280;26968;42.686;23.352;2023-09-18T09:42:55;95698.16;;;23.15;52.84
41234;BME280;26968;42.686;23.352;2023-09-18T09:45:27;95659.75;;;22.97;52.88
41234;BME280;26968;42.686;23.352;2023-09-18T09:47:54;95669.66;;;23.18;52.36
41234;BME280;26968;42.686;23.352;2023-09-18T09:50:20;95690.47;;;23.41;51.93
41234;BME280;26968;42.686;23.352;2023-09-18T09:52:48;95690.44;;;23.54;51.98
41234;BME280;26968;42.686;23.352;2023-09-18T09:55:28;95690.09;;;23.83;51.56
41234;BME280;26968;42.686;23.352;2023-09-18T09:57:56;95686.28;;;24.43;50.59
41234;BME280;26968;42.686;23.352;2023-09-18T10:00:26;95688.72;;;25.11;47.75
41234;BME280;26968;42.686;23.352;2023-09-18T10:05:56;95676.47;;;27.05;42.90
41234;BME280;26968;42.686;23.352;2023-09-18T10:08:25;95612.63;;;27.58;40.56
41234;BME280;26968;42.686;23.352;2023-09-18T10:10:53;95674.94;;;28.30;40.16
41234;BME280;26968;42.686;23.352;2023-09-18T10:13:42;95672.09;;;29.04;38.19
41234;BME280;26968;42.686;23.352;2023-09-18T10:16:17;95656.50;;;29.84;36.62
41234;BME280;26968;42.686;23.352;2023-09-18T10:18:56;95658.63;;;30.26;36.06
41234;BME280;26968;42.686;23.352;2023-09-18T10:24:23;95598.81;;;30.96;34.20
41234;BME280;26968;42.686;23.352;2023-09-18T10:27:01;95666.00;;;31.57;33.29
41234;BME280;26968;42.686;23.352;2023-09-18T10:29:29;95661.16;;;31.90;32.70
41234;BME280;26968;42.686;23.352;2023-09-18T10:31:56;95599.03;;;31.55;32.38
41234;BME280;26968;42.686;23.352;2023-09-18T10:34:23;95604.00;;;31.88;32.09
41234;BME280;26968;42.686;23.352;2023-09-18T10:36:57;95625.03;;;32.05;32.19
41234;BME280;26968;42.686;23.352;2023-09-18T10:39:26;95606.19;;;32.18;31.44
41234;BME280;26968;42.686;23.352;2023-09-18T10:41:54;95640.94;;;32.35;31.63
41234;BME280;26968;42.686;23.352;2023-09-18T10:44:20;95625.41;;;32.66;30.54
41234;BME280;26968;42.686;23.352;2023-09-18T10:46:51;95623.91;;;32.58;30.83
41234;BME280;26968;42.686;23.352;2023-09-18T10:49:17;95596.53;;;31.92;31.83
41234;BME280;26968;42.686;23.352;2023-09-18T10:51:46;95627.22;;;32.39;31.18
41234;BME280;26968;42.686;23.352;2023-09-18T10:54:20;95597.34;;;32.48;30.76
41234;BME280;26968;42.686;23.352;2023-09-18T10:56:47;95571.19;;;32.33;31.48
41234;BME280;26968;42.686;23.352;2023-09-18T10:59:14;95610.06;;;32.20;31.56
41234;BME280;26968;42.686;23.352;2023-09-18T11:01:40;95610.91;;;32.17;31.48
41234;BME280;26968;42.686;23.352;2023-09-18T11:04:07;95597.53;;;32.19;30.84
41234;BME280;26968;42.686;23.352;2023-09-18T11:07:20;95615.09;;;32.33;31.19
41234;BME280;26968;42.686;23.352;2023-09-18T11:09:46;95597.81;;;32.39;30.82
41234;BME280;26968;42.686;23.352;2023-09-18T11:12:14;95604.97;;;32.78;30.15
41234;BME280;26968;42.686;23.352;2023-09-18T11:14:42;95590.78;;;32.83;29.83
41234;BME280;26968;42.686;23.352;2023-09-18T11:17:34;95588.66;;;33.01;29.97
41234;BME280;26968;42.686;23.352;2023-09-18T11:22:48;95547.22;;;32.85;29.35
41234;BME280;26968;42.686;23.352;2023-09-18T11:28:16;95499.88;;;32.70;28.49
41234;BME280;26968;42.686;23.352;2023-09-18T11:30:53;95584.50;;;33.20;28.41
41234;BME280;26968;42.686;23.352;2023-09-18T11:33:37;95576.34;;;32.75;30.11
41234;BME280;26968;42.686;23.352;2023-09-18T11:36:07;95540.41;;;32.55;29.14
41234;BME280;26968;42.686;23.352;2023-09-18T11:38:35;95576.78;;;33.08;29.17
41234;BME280;26968;42.686;23.352;2023-09-18T11:41:21;95553.72;;;33.02;29.23
41234;BME280;26968;42.686;23.352;2023-09-18T11:43:47;95570.50;;;32.70;29.67
41234;BME280;26968;42.686;23.352;2023-09-18T11:46:18;95565.47;;;33.02;29.70
41234;BME280;26968;42.686;23.352;2023-09-18T11:48:51;95516.94;;;32.88;29.32
41234;BME280;26968;42.686;23.352;2023-09-18T11:51:22;95514.25;;;32.85;28.72
41234;BME280;26968;42.686;23.352;2023-09-18T11:53:54;95557.31;;;33.32;28.76
41234;BME280;26968;42.686;23.352;2023-09-18T11:56:21;95552.91;;;33.39;29.07
41234;BME280;26968;42.686;23.352;2023-09-18T11:58:47;95508.84;;;32.74;29.64
41234;BME280;26968;42.686;23.352;2023-09-18T12:01:14;95529.22;;;32.80;29.27
41234;BME280;26968;42.686;23.352;2023-09-18T12:03:41;95543.81;;;32.70;29.51
41234;BME280;26968;42.686;23.352;2023-09-18T12:06:06;95507.91;;;32.02;30.09
41234;BME280;26968;42.686;23.352;2023-09-18T12:08:35;95505.94;;;31.99;30.30
41234;BME280;26968;42.686;23.352;2023-09-18T12:11:04;95548.53;;;32.25;30.29
41234;BME280;26968;42.686;23.352;2023-09-18T12:13:31;95556.66;;;32.36;30.83
41234;BME280;26968;42.686;23.352;2023-09-18T12:16:05;95555.44;;;31.85;31.33
41234;BME280;26968;42.686;23.352;2023-09-18T12:18:34;95550.72;;;31.82;31.73
41234;BME280;26968;42.686;23.352;2023-09-18T12:21:06;95537.75;;;31.10;32.74
41234;BME280;26968;42.686;23.352;2023-09-18T12:23:39;95523.31;;;30.95;32.53
41234;BME280;26968;42.686;23.352;2023-09-18T12:26:05;95539.41;;;30.61;32.93
41234;BME280;26968;42.686;23.352;2023-09-18T12:28:37;95517.13;;;30.62;33.37
41234;BME280;26968;42.686;23.352;2023-09-18T12:31:03;95508.44;;;30.85;32.54
41234;BME280;26968;42.686;23.352;2023-09-18T12:33:36;95549.38;;;31.42;31.88
41234;BME280;26968;42.686;23.352;2023-09-18T12:36:07;95484.50;;;31.14;31.58
41234;BME280;26968;42.686;23.352;2023-09-18T12:38:33;95536.97;;;31.89;31.30
41234;BME280;26968;42.686;23.352;2023-09-18T12:40:59;95491.44;;;31.40;31.15
41234;BME280;26968;42.686;23.352;2023-09-18T12:43:39;95480.00;;;31.52;31.06
41234;BME280;26968;42.686;23.352;2023-09-18T12:46:08;95524.38;;;31.99;31.23
41234;BME280;26968;42.686;23.352;2023-09-18T12:48:38;95539.53;;;32.14;31.18
41234;BME280;26968;42.686;23.352;2023-09-18T12:51:07;95510.72;;;31.92;30.91
41234;BME280;26968;42.686;23.352;2023-09-18T12:53:37;95500.06;;;32.01;31.06
41234;BME280;26968;42.686;23.352;2023-09-18T12:56:08;95532.09;;;32.18;31.06
41234;BME280;26968;42.686;23.352;2023-09-18T12:58:35;95486.28;;;32.11;30.13
41234;BME280;26968;42.686;23.352;2023-09-18T13:01:04;95530.88;;;32.71;29.79
41234;BME280;26968;42.686;23.352;2023-09-18T13:03:45;95513.63;;;32.26;30.45
41234;BME280;26968;42.686;23.352;2023-09-18T13:06:16;95515.19;;;32.27;30.84
41234;BME280;26968;42.686;23.352;2023-09-18T13:08:45;95530.03;;;32.33;30.04